Latest Weather Observations for Learmonth

IDW60801

Issued at 6:35 pm WST Wednesday 23 April 2014 (issued every 30 minutes, with the page automatically refreshed every 10 minutes)

About weather observations | Map of weather stations | Latest weather observations for WA | Other Formats
Station Details ID: 005007 Name: LEARMONTH AIRPORT Lat: -22.24 Lon: 114.10 Height: 5.0 m
Data from the previous 72 hours. | See also: Recent months at Learmonth
Date/Time
WST
Temp
°C
App
Temp
°C
Dew
Point
Rel
Hum
%
Delta-T
°C
Wind Press
QNH
hPa
Press
MSL
hPa
Rain
since 9 am
mm
Dir
 
Spd
km/h
Gust
km/h
Spd
kts
Gust
kts
23/06:30pm 28.5 27.4 14.4 42 8.5 W 13 15 7 8 1010.9 - 0.0
23/06:00pm 29.2 28.2 15.5 43 8.4 W 15 20 8 11 1010.7 1010.6 0.0
23/05:30pm 29.3 29.0 18.2 51 7.1 W 17 24 9 13 1010.6 - 0.0
23/05:00pm 30.3 28.3 14.9 39 9.4 W 19 24 10 13 1010.4 - 0.0
23/04:30pm 30.9 28.4 13.6 34 10.4 WSW 19 24 10 13 1010.3 - 0.0
23/04:00pm 31.4 29.3 13.7 34 10.7 W 17 24 9 13 1010.0 - 0.0
23/03:30pm 30.0 31.8 20.3 56 6.4 N 11 17 6 9 1010.1 - 0.0
23/03:00pm 28.9 29.7 20.6 61 5.5 NNE 17 22 9 12 1010.1 1010.0 0.0
23/02:30pm 29.5 29.6 20.3 57 6.1 NNE 20 24 11 13 1010.1 - 0.0
23/02:00pm 29.8 30.9 19.7 54 6.6 NE 13 19 7 10 1010.3 - 0.0
23/01:30pm 30.2 30.5 19.5 52 7.0 NE 17 22 9 12 1010.7 - 0.0
23/01:00pm 30.6 31.2 19.4 51 7.3 ENE 15 19 8 10 1011.0 - 0.0
23/12:30pm 29.4 29.6 19.4 55 6.5 ENE 17 19 9 10 1011.4 - 0.0
23/12:00pm 29.1 28.7 19.4 55 6.3 E 20 32 11 17 1011.6 1011.5 0.0
23/11:30am 29.7 29.9 19.4 54 6.7 E 17 24 9 13 1012.0 - 0.0
23/11:00am 30.7 32.3 17.9 46 8.2 WSW 6 13 3 7 1012.6 - 0.0
23/10:30am 30.1 31.2 18.1 48 7.7 SSW 9 13 5 7 1012.8 - 0.0
23/10:00am 28.8 29.3 18.3 53 6.7 SSW 13 19 7 10 1013.0 - 0.0
23/09:30am 28.3 28.7 19.0 57 6.0 SW 15 19 8 10 1013.1 - 0.0
23/09:00am 27.6 28.3 18.9 59 5.6 SW 13 19 7 10 1013.0 1012.9 0.0
23/08:30am 26.3 26.3 16.2 53 6.2 WSW 11 15 6 8 1013.1 - 0.0
23/08:00am 24.7 25.2 16.6 60 5.0 W 9 11 5 6 1012.9 - 0.0
23/07:30am 23.3 26.6 19.1 77 2.7 CALM 0 0 0 0 1012.6 - 0.0
23/07:00am 20.8 22.4 17.9 83 1.8 WSW 6 6 3 3 1012.5 - 0.0
23/06:30am 20.0 21.8 17.4 85 1.6 WSW 4 6 2 3 1012.2 - 0.0
23/06:00am 20.4 22.9 17.3 82 1.9 W 0 0 0 0 1012.3 1012.2 0.0
23/05:30am 20.7 22.4 18.0 84 1.7 W 6 7 3 4 1012.1 - 0.0
23/05:00am 20.8 22.9 18.1 84 1.7 W 4 6 2 3 1012.0 - 0.0
23/04:30am 21.0 23.2 18.3 84 1.7 W 4 7 2 4 1011.9 - 0.0
23/04:00am 21.2 22.9 18.6 85 1.6 WSW 7 7 4 4 1012.0 - 0.0
23/03:30am 21.1 22.8 18.5 85 1.6 SW 7 9 4 5 1011.7 - 0.0
23/03:00am 20.6 21.5 18.4 87 1.4 SSW 11 13 6 7 1011.8 1011.7 0.0
23/02:30am 20.7 21.3 18.5 87 1.4 S 13 15 7 8 1012.2 - 0.0
23/02:00am 21.4 22.8 18.7 84 1.7 SSW 9 9 5 5 1012.4 - 0.0
23/01:30am 22.1 23.6 18.9 82 2.0 SSW 9 11 5 6 1012.5 - 0.0
23/01:00am 23.1 24.4 19.2 79 2.5 SW 11 15 6 8 1012.8 - 0.0
23/12:30am 23.6 24.6 19.4 77 2.7 SSW 13 17 7 9 1012.7 - 0.0
23/12:00am 24.4 25.1 19.6 74 3.1 SSW 15 19 8 10 1012.8 1012.7 0.0
 
Date/Time
WST
Temp
°C
App
Temp
°C
Dew
Point
Rel
Hum
%
Delta-T
°C
Wind Press
QNH
hPa
Press
MSL
hPa
Rain
since 9 am
mm
Dir
 
Spd
km/h
Gust
km/h
Spd
kts
Gust
kts
22/11:30pm 25.3 25.6 19.6 70 3.7 SW 17 24 9 13 1013.1 - 0.0
22/11:00pm 25.5 25.9 19.8 70 3.7 SW 17 22 9 12 1013.2 - 0.0
22/10:30pm 25.5 25.9 19.8 70 3.7 SW 17 22 9 12 1013.4 - 0.0
22/10:00pm 25.8 26.1 20.3 71 3.6 SW 19 26 10 14 1013.6 - 0.0
22/09:30pm 25.8 27.2 20.3 71 3.6 SW 13 19 7 10 1013.8 - 0.0
22/09:00pm 25.9 27.7 20.4 71 3.6 SW 11 15 6 8 1013.7 1013.6 0.0
22/08:30pm 26.1 26.6 20.1 69 3.9 WSW 17 20 9 11 1013.5 - 0.0
22/08:00pm 26.1 27.2 19.6 67 4.2 WSW 13 19 7 10 1013.4 - 0.0
22/07:30pm 26.7 26.7 18.9 62 5.0 WSW 17 22 9 12 1012.9 - 0.0
22/07:00pm 27.1 27.6 18.3 58 5.6 WSW 13 20 7 11 1012.3 - 0.0
22/06:30pm 28.0 27.1 16.8 50 7.0 W 17 20 9 11 1012.1 - 0.0
22/06:00pm 29.3 29.8 15.5 43 8.5 WNW 7 19 4 10 1011.8 1011.7 0.0
22/05:30pm 29.6 28.5 14.4 39 9.2 N 13 17 7 9 1011.5 - 0.0
22/05:00pm 30.6 29.2 12.2 32 10.8 N 11 15 6 8 1011.2 - 0.0
22/04:30pm 30.4 28.9 15.3 40 9.3 NNE 17 20 9 11 1010.9 - 0.0
22/04:00pm 31.0 29.3 14.6 37 10.0 NNE 17 20 9 11 1010.7 - 0.0
22/03:30pm 32.2 28.7 7.4 21 13.6 NE 15 20 8 11 1010.7 - 0.0
22/03:00pm 32.4 29.9 12.3 29 11.9 NNE 17 20 9 11 1010.7 1010.6 0.0
22/02:30pm 32.3 30.0 12.9 30 11.6 NE 17 20 9 11 1010.8 - 0.0
22/02:00pm 32.4 30.1 13.1 31 11.6 ENE 17 20 9 11 1011.0 - 0.0
22/01:30pm 32.3 30.4 14.1 33 11.1 ENE 17 20 9 11 1011.3 - 0.0
22/01:00pm 32.5 29.2 9.4 24 13.1 ENE 17 20 9 11 1011.7 - 0.0
22/12:30pm 32.5 30.3 12.0 28 12.1 ENE 15 20 8 11 1012.0 - 0.0
22/12:00pm 31.0 29.1 13.0 33 10.7 E 15 19 8 10 1012.7 1012.6 0.0
22/11:30am 31.2 28.6 11.9 30 11.3 E 17 24 9 13 1013.1 - 0.0
22/11:00am 31.1 29.7 10.8 28 11.7 SE 9 17 5 9 1013.4 - 0.0
22/10:30am 30.5 29.6 11.3 30 11.1 SSW 7 13 4 7 1013.8 - 0.0
22/10:00am 28.9 28.9 13.6 39 9.1 SSE 6 13 3 7 1013.9 - 0.0
22/09:30am 27.2 25.9 12.6 40 8.5 S 11 17 6 9 1013.9 - 0.0
22/09:00am 26.3 24.3 12.7 43 7.9 S 15 19 8 10 1014.0 1013.9 0.0
22/08:30am 24.7 22.2 13.6 50 6.5 SSW 19 24 10 13 1013.8 - 0.0
22/08:00am 23.3 21.4 14.3 57 5.3 SSW 17 20 9 11 1013.6 - 0.0
22/07:30am 21.6 20.9 14.4 63 4.2 SSW 11 13 6 7 1013.5 - 0.0
22/07:00am 19.4 18.8 14.6 74 2.8 SW 11 13 6 7 1013.4 - 0.0
22/06:30am 19.3 18.6 14.3 73 2.9 SSW 11 15 6 8 1013.4 - 0.0
22/06:00am 19.9 19.3 14.6 71 3.1 SW 11 15 6 8 1013.0 1012.9 0.0
22/05:30am 20.3 18.9 14.5 69 3.4 SSW 15 19 8 10 1012.9 - 0.0
22/05:00am 19.8 18.3 14.3 70 3.2 SSW 15 17 8 9 1012.7 - 0.0
22/04:30am 20.2 18.6 14.0 67 3.6 SSW 15 17 8 9 1012.6 - 0.0
22/04:00am 20.4 18.8 13.8 66 3.8 SSW 15 19 8 10 1012.8 - 0.0
22/03:30am 20.5 18.8 13.5 64 4.0 SW 15 19 8 10 1012.9 - 0.0
22/03:00am 20.7 19.0 13.6 64 4.1 SSW 15 20 8 11 1012.9 1012.8 0.0
22/02:30am 21.0 18.9 13.5 62 4.3 SSW 17 20 9 11 1013.0 - 0.0
22/02:00am 21.4 18.9 13.4 60 4.6 SSW 19 22 10 12 1013.2 - 0.0
22/01:30am 21.9 19.3 13.2 57 5.0 SSW 19 22 10 12 1013.3 - 0.0
22/01:00am 22.4 19.6 13.2 56 5.3 SSW 20 26 11 14 1013.7 - 0.0
22/12:30am 22.6 19.9 13.4 56 5.3 SW 20 24 11 13 1013.6 - 0.0
22/12:00am 23.0 20.0 13.7 55 5.4 SSW 22 28 12 15 1013.7 1013.6 0.0
 
Date/Time
WST
Temp
°C
App
Temp
°C
Dew
Point
Rel
Hum
%
Delta-T
°C
Wind Press
QNH
hPa
Press
MSL
hPa
Rain
since 9 am
mm
Dir
 
Spd
km/h
Gust
km/h
Spd
kts
Gust
kts
21/11:30pm 23.8 20.4 14.7 56 5.4 SSW 26 39 14 21 1013.8 - 0.0
21/11:27pm 23.9 20.5 14.8 56 5.4 SSW 26 39 14 21 1013.8 - 0.0
21/11:11pm 24.2 21.9 15.6 58 5.2 SSW 22 32 12 17 1013.8 - 0.0
21/11:00pm 24.3 22.7 16.5 61 4.8 SSW 20 28 11 15 1013.7 - 0.0
21/10:30pm 24.7 23.4 18.2 67 4.1 SW 22 30 12 16 1013.5 - 0.0
21/10:00pm 25.0 23.8 18.4 66 4.2 SW 22 28 12 15 1013.6 - 0.0
21/09:30pm 25.1 24.4 18.6 67 4.1 SW 20 24 11 13 1013.5 - 0.0
21/09:00pm 25.4 24.6 18.5 65 4.4 SW 20 28 11 15 1013.5 1013.4 0.0
21/08:30pm 25.5 24.7 18.0 63 4.7 SW 19 24 10 13 1013.2 - 0.0
21/08:00pm 25.8 24.8 17.5 60 5.2 SW 19 24 10 13 1013.1 - 0.0
21/07:30pm 26.6 25.0 16.4 53 6.3 SW 20 28 11 15 1013.0 - 0.0
21/07:00pm 27.7 25.0 14.6 44 7.9 SW 22 26 12 14 1012.6 - 0.0
21/06:30pm 28.7 26.8 12.9 37 9.3 SSW 15 20 8 11 1012.1 - 0.0
21/06:00pm 30.0 26.8 11.8 32 10.6 SSW 20 24 11 13 1011.8 1011.7 0.0
21/05:30pm 31.8 28.4 10.6 27 12.2 SSW 19 22 10 12 1011.5 - 0.0
21/05:00pm 32.2 29.9 9.1 24 13.0 NNE 11 13 6 7 1011.3 - 0.0
21/04:30pm 32.7 29.9 8.6 22 13.5 NE 13 17 7 9 1011.1 - 0.0
21/04:00pm 32.5 28.9 8.5 22 13.4 ENE 17 20 9 11 1011.0 - 0.0
21/03:30pm 32.5 29.5 9.1 23 13.2 ENE 15 20 8 11 1011.0 - 0.0
21/03:00pm 32.6 29.5 8.7 22 13.4 ENE 15 20 8 11 1011.2 1011.1 0.0
21/02:30pm 32.2 29.0 10.0 25 12.7 E 17 20 9 11 1011.4 - 0.0
21/02:00pm 33.2 30.0 9.8 23 13.4 E 17 24 9 13 1011.5 - 0.0
21/01:30pm 32.4 28.2 8.3 22 13.4 SE 20 26 11 14 1011.7 - 0.0
21/01:00pm 32.1 28.1 9.2 24 12.9 SE 20 26 11 14 1011.9 - 0.0
21/12:30pm 31.3 27.6 10.3 27 12.0 S 20 32 11 17 1012.5 - 0.0
21/12:00pm 30.0 26.1 10.8 30 11.0 SSE 22 32 12 17 1013.0 1012.9 0.0
21/11:30am 30.5 27.2 11.6 31 11.0 SSE 20 28 11 15 1013.4 - 0.0
21/11:00am 29.2 25.6 11.8 34 10.1 SSE 22 32 12 17 1013.9 - 0.0
21/10:30am 27.2 23.5 12.6 40 8.5 S 24 33 13 18 1014.2 - 0.0
21/10:00am 25.9 22.3 13.2 45 7.4 S 24 28 13 15 1014.4 - 0.0
21/09:30am 24.6 21.5 13.5 50 6.5 S 22 32 12 17 1014.5 - 0.0
21/09:00am 24.6 21.7 13.9 51 6.3 S 22 30 12 16 1014.4 1014.3 0.0
21/08:30am 22.6 20.0 13.8 57 5.1 S 20 28 11 15 1014.3 - 0.0
21/08:00am 20.9 18.8 14.8 68 3.6 S 19 24 10 13 1014.2 - 0.0
21/07:30am 19.4 18.6 15.1 76 2.5 SSW 13 17 7 9 1014.4 - 0.0
21/07:00am 18.5 17.8 15.3 81 1.9 SSW 13 17 7 9 1014.0 - 0.0
21/06:30am 18.4 16.9 15.3 82 1.8 SSW 17 20 9 11 1013.7 - 0.0
21/06:00am 18.7 17.2 15.3 80 2.0 SSW 17 20 9 11 1013.4 1013.3 0.0
21/05:30am 19.1 17.6 15.2 78 2.3 SSW 17 20 9 11 1013.3 - 0.0
21/05:00am 19.3 17.8 15.2 77 2.4 SSW 17 22 9 12 1012.9 - 0.0
21/04:30am 19.8 17.8 15.0 74 2.8 SSW 19 24 10 13 1012.8 - 0.0
21/04:00am 20.3 18.0 14.7 70 3.3 SSW 20 26 11 14 1012.7 - 0.0
21/03:30am 20.5 18.2 14.7 69 3.4 SSW 20 24 11 13 1012.6 - 0.0
21/03:00am 20.5 18.1 14.3 67 3.6 SSW 20 24 11 13 1012.5 1012.4 0.0
21/02:30am 20.6 18.6 13.8 65 3.9 SSW 17 22 9 12 1012.3 - 0.0
21/02:00am 21.0 18.9 13.5 62 4.3 SSW 17 24 9 13 1012.3 - 0.0
21/01:30am 21.6 18.4 13.2 59 4.8 SW 22 28 12 15 1012.2 - 0.0
21/01:00am 21.8 19.0 13.1 57 5.0 SSW 20 26 11 14 1012.1 - 0.0
21/12:30am 22.0 19.2 13.3 57 5.0 SSW 20 24 11 13 1012.1 - 0.0
21/12:00am 22.6 20.1 13.4 56 5.3 SSW 19 26 10 14 1012.2 1012.1 0.0
 
Date/Time
WST
Temp
°C
App
Temp
°C
Dew
Point
Rel
Hum
%
Delta-T
°C
Wind Press
QNH
hPa
Press
MSL
hPa
Rain
since 9 am
mm
Dir
 
Spd
km/h
Gust
km/h
Spd
kts
Gust
kts
20/11:30pm 22.9 20.5 13.8 56 5.3 SSW 19 22 10 12 1012.0 - 0.0
20/11:00pm 23.5 21.6 14.3 56 5.4 SSW 17 22 9 12 1012.0 - 0.0
20/10:30pm 24.2 22.5 16.2 61 4.9 SSW 20 24 11 13 1012.0 - 0.0
20/10:00pm 25.0 23.9 17.8 64 4.5 SSW 20 26 11 14 1012.0 - 0.0
20/09:30pm 25.9 25.0 18.2 62 4.9 SSW 20 26 11 14 1011.9 - 0.0
20/09:00pm 25.9 25.2 18.2 62 4.9 SW 19 24 10 13 1011.8 1011.7 0.0
20/08:30pm 26.0 25.7 18.3 62 4.9 SW 17 20 9 11 1011.6 - 0.0
20/08:00pm 26.6 25.7 18.1 59 5.4 SW 20 28 11 15 1011.3 - 0.0
20/07:30pm 27.6 25.9 16.3 50 7.0 SW 20 28 11 15 1011.1 - 0.0
20/07:00pm 28.7 26.3 14.5 42 8.6 SW 20 26 11 14 1010.8 - 0.0

Other Formats:

Comma delimited format used in spreadsheet applications
http://www.bom.gov.au/fwo/IDW60801/IDW60801.94302.axf

JavaScript Object Notation format (JSON) in row-major order
http://www.bom.gov.au/fwo/IDW60801/IDW60801.94302.json